Aérodrome :
LOGIN :

S'inscrire | Disclaimer

   EN    FR    IT 

 










Légende :    VFR   VFR Marginal   IFR   IFR Intensif   IFR Très Intensif
Visi : 
Plafond : 
>= 8 km
>= 3000ft
5 à 8 km
1000 à 3000 ft
1500m à 5 km
500 à 1000 ft
800 à 1500m
200 à 500 ft
< 800m
< 200 ft
Symboles :   Orages  Brouillard  Fortes neiges  Fortes précipitations  Vent > 20 kt
SIGMETs :   Divers  Orages  Givrage  Turbulence  Onde Orograph.  Cendres Volcan.







- Altitude de l'aérodrome : 125 ft
- Code IATA : MGL


EDLN - Mönchengladbach

DERNIER METAR :
  • 190950Z 27009KT 220V310 9999 FEW040 07/04 Q1017

METARs EXPIRÉS :
  • 190920Z 26008KT 9999 FEW035 06/04 Q1017
  • 190850Z 26007KT 200V310 9999 FEW037 05/04 Q1017
  • 190820Z 26007KT 210V290 9999 FEW033 SCT057 05/03 Q1017
  • 190750Z 26005KT 210V300 9999 VCSH SCT042 SCT070TCU 04/03 Q1017

TAF TAF EDLN
Valide du 19 à 09h jusqu'au 19 à 18h UTC


190800Z 1909/1918 28008KT 9999 SCT020
TEMPO 1911/1915 28013KT
Pas de NOTAMs connus pour ce terrain.



MET'MAP, la Météo Aéronautique d'un coup d'oeil ! - Copyright ORBIFLY Décembre 2007 - Disclaimer

ORBIFLY MET'MAP TEAM :

Programmation & Développement : Alexandra Zaïnal
Conception & Développement : Baudouin d'Aumeries
Co-Programmation & Développement : Marc-Olivier Méhu
Soutien technique & logistique : Manuel Goepfert

Contact : metmap@orbifly.com




SOURCES & CREDITS :

   NOAA